Time;durP1;ratioP1;P1;durP2;ratioP2;P2;SDS_P1;SDS_P2;PMS_P1;PMS_P2;Temp;Humidity;BMP_temperature;BMP_pressure;BME280_temperature;BME280_humidity;BME280_pressure;Samples;Min_cycle;Max_cycle;Signal;HPM_P1;HPM_P2
2023/05/03 00:01:19;;;;;;;4.60;2.78;;;;;;;5.17;78.81;102786.09;4987782;28;20037;-68
2023/05/03 00:03:45;;;;;;;8.05;2.38;;;;;;;5.11;78.08;102790.69;4986718;28;20570;-67
2023/05/03 00:06:11;;;;;;;3.42;2.33;;;;;;;5.10;79.01;102788.03;4986140;28;20305;-67
2023/05/03 00:08:37;;;;;;;3.78;2.45;;;;;;;5.05;78.96;102784.53;4986462;28;20387;-68
2023/05/03 00:11:02;;;;;;;5.72;2.53;;;;;;;5.05;79.56;102787.22;4986766;28;20038;-68
2023/05/03 00:13:27;;;;;;;5.05;2.40;;;;;;;5.04;79.03;102790.84;4987481;28;20066;-68
2023/05/03 00:15:53;;;;;;;4.88;2.95;;;;;;;5.00;79.63;102790.00;5004664;28;20214;-68
2023/05/03 00:18:18;;;;;;;5.68;2.50;;;;;;;4.98;80.13;102790.94;5007374;28;20041;-68
2023/05/03 00:20:43;;;;;;;4.20;2.20;;;;;;;4.93;80.13;102782.94;5004724;28;20088;-68
2023/05/03 00:23:09;;;;;;;3.95;2.45;;;;;;;4.93;79.77;102791.03;5003759;28;20467;-68
2023/05/03 00:25:34;;;;;;;4.20;2.58;;;;;;;4.90;79.65;102791.09;5006151;28;20410;-68
2023/05/03 00:27:59;;;;;;;7.90;2.50;;;;;;;4.88;79.54;102787.53;4989698;28;20045;-68
2023/05/03 00:30:25;;;;;;;3.33;2.28;;;;;;;4.87;79.61;102791.13;4997343;28;20018;-68
2023/05/03 00:32:51;;;;;;;3.33;2.80;;;;;;;4.79;80.17;102795.75;4987329;28;20048;-68
2023/05/03 00:35:16;;;;;;;3.72;2.20;;;;;;;4.81;79.88;102785.88;4985349;28;20070;-68
2023/05/03 00:37:42;;;;;;;4.85;2.67;;;;;;;4.78;80.20;102786.78;4984080;28;20591;-68
2023/05/03 00:40:08;;;;;;;6.75;2.17;;;;;;;4.75;79.89;102785.94;4985107;28;20042;-68
2023/05/03 00:42:35;;;;;;;2.90;2.40;;;;;;;4.72;79.99;102784.22;4986405;28;20026;-68
2023/05/03 00:45:03;;;;;;;4.35;2.25;;;;;;;4.69;79.86;102781.56;4985864;28;20030;-68
2023/05/03 00:47:30;;;;;;;3.88;2.30;;;;;;;4.67;79.46;102801.38;4983972;28;20509;-68
2023/05/03 00:49:55;;;;;;;7.15;2.55;;;;;;;4.64;80.16;102796.91;4985165;28;20030;-69
2023/05/03 00:52:21;;;;;;;4.85;2.65;;;;;;;4.56;80.12;102785.38;4985396;28;20026;-69
2023/05/03 00:54:46;;;;;;;6.10;3.03;;;;;;;4.59;80.65;102794.28;4986944;28;20066;-68
2023/05/03 00:57:12;;;;;;;3.67;2.20;;;;;;;4.54;80.24;102789.91;4986587;28;20035;-68
2023/05/03 00:59:38;;;;;;;5.28;2.80;;;;;;;4.53;80.92;102790.81;4986360;28;20592;-69
2023/05/03 01:02:03;;;;;;;3.80;2.42;;;;;;;4.49;80.68;102786.41;4999050;28;20042;-68
2023/05/03 01:04:29;;;;;;;4.10;2.80;;;;;;;4.48;80.87;102784.63;5005861;28;20069;-69
2023/05/03 01:07:21;;;;;;;6.93;2.70;;;;;;;4.47;81.95;102786.41;4992486;28;20458;-68
2023/05/03 01:09:55;;;;;;;4.07;2.65;;;;;;;4.43;81.74;102775.69;4958710;28;20046;-68
2023/05/03 01:12:57;;;;;;;4.20;2.75;;;;;;;4.41;81.27;102785.63;4986694;28;20554;-68
2023/05/03 01:15:44;;;;;;;5.10;2.83;;;;;;;4.35;81.67;102787.50;4986296;28;20042;-68
2023/05/03 01:18:14;;;;;;;5.43;2.60;;;;;;;4.32;81.39;102786.66;4986433;28;20047;-69
2023/05/03 01:20:45;;;;;;;4.47;2.58;;;;;;;4.32;81.49;102789.34;4984538;28;20046;-69
2023/05/03 01:23:26;;;;;;;4.35;2.92;;;;;;;4.31;80.89;102782.19;4985577;28;20068;-68
2023/05/03 01:25:53;;;;;;;5.88;2.67;;;;;;;4.33;81.00;102788.41;4986031;28;20557;-68
2023/05/03 01:28:18;;;;;;;5.97;3.05;;;;;;;4.30;81.64;102793.88;4986702;28;20136;-68
2023/05/03 01:30:46;;;;;;;6.25;3.22;;;;;;;4.28;81.77;102798.38;4984929;28;20084;-68
2023/05/03 01:33:29;;;;;;;6.10;3.63;;;;;;;4.24;83.05;102797.56;4985018;28;20113;-68
2023/05/03 01:36:03;;;;;;;6.78;2.97;;;;;;;4.22;82.66;102790.41;4985534;28;20042;-68
2023/05/03 01:38:35;;;;;;;5.90;2.58;;;;;;;4.18;81.58;102789.53;4985543;28;20078;-68
2023/05/03 01:41:07;;;;;;;4.80;2.63;;;;;;;4.20;82.41;102794.94;4984563;28;20479;-69
2023/05/03 01:43:35;;;;;;;4.55;3.22;;;;;;;4.19;82.22;102799.41;4984408;28;20129;-69
2023/05/03 01:46:00;;;;;;;5.13;3.05;;;;;;;4.18;80.95;102791.34;5004550;28;20061;-69
2023/05/03 01:48:26;;;;;;;5.45;3.10;;;;;;;4.18;81.74;102792.22;4996316;28;20034;-69
2023/05/03 01:50:51;;;;;;;7.18;4.25;;;;;;;4.19;82.16;102791.31;5005279;28;20038;-69
2023/05/03 01:53:16;;;;;;;8.40;3.25;;;;;;;4.18;81.43;102789.53;4999115;28;20069;-69
2023/05/03 01:55:42;;;;;;;6.85;3.30;;;;;;;4.16;83.05;102796.78;4989187;28;20138;-68
2023/05/03 01:58:07;;;;;;;4.22;3.40;;;;;;;4.16;82.71;102798.56;5001872;28;20528;-68
2023/05/03 02:00:32;;;;;;;5.10;3.05;;;;;;;4.13;82.11;102790.53;5001991;28;20470;-69
2023/05/03 02:02:58;;;;;;;11.95;3.50;;;;;;;4.13;81.80;102804.88;4988975;28;20116;-69
2023/05/03 02:05:24;;;;;;;6.13;2.97;;;;;;;4.08;82.15;102791.47;4987549;28;20072;-68
2023/05/03 02:07:50;;;;;;;3.95;2.80;;;;;;;4.07;81.21;102797.78;4989250;28;20053;-69
2023/05/03 02:10:16;;;;;;;6.50;3.38;;;;;;;4.07;81.09;102799.59;4989239;28;20030;-69
2023/05/03 02:12:41;;;;;;;5.95;3.17;;;;;;;4.03;82.14;102792.47;4989596;28;20170;-69
2023/05/03 02:15:07;;;;;;;6.72;3.08;;;;;;;4.00;81.83;102798.75;4997269;28;20026;-69
2023/05/03 02:17:33;;;;;;;5.32;3.22;;;;;;;3.97;82.65;102797.94;4988862;28;20498;-69
2023/05/03 02:19:59;;;;;;;4.20;3.30;;;;;;;3.97;82.76;102795.25;4987951;28;20038;-69
2023/05/03 02:22:24;;;;;;;9.18;3.20;;;;;;;3.95;82.21;102787.16;4992172;28;20124;-68
2023/05/03 02:24:50;;;;;;;7.32;3.13;;;;;;;3.93;82.02;102780.03;5006513;28;20033;-68
2023/05/03 02:27:16;;;;;;;5.90;3.25;;;;;;;3.89;83.69;102794.47;5007051;28;20092;-68
2023/05/03 02:29:42;;;;;;;5.60;3.53;;;;;;;3.87;83.45;102783.72;5002825;28;20050;-69
2023/05/03 02:32:07;;;;;;;4.88;3.65;;;;;;;3.84;83.34;102778.38;5004072;28;20100;-68
2023/05/03 02:34:33;;;;;;;9.48;3.63;;;;;;;3.80;84.32;102768.53;5003656;28;20121;-69
2023/05/03 02:36:59;;;;;;;7.13;3.55;;;;;;;3.77;84.23;102763.19;4985934;28;20096;-69
2023/05/03 02:39:24;;;;;;;7.55;3.45;;;;;;;3.69;84.20;102752.53;4988775;28;20044;-69
2023/05/03 02:41:50;;;;;;;9.25;3.58;;;;;;;3.69;84.55;102752.53;4993120;28;20075;-69
2023/05/03 02:44:16;;;;;;;4.55;3.30;;;;;;;3.66;84.57;102755.25;4991011;28;20117;-69
2023/05/03 02:46:41;;;;;;;10.55;3.15;;;;;;;3.63;84.07;102757.97;5006513;28;20504;-69
2023/05/03 02:49:08;;;;;;;4.97;3.60;;;;;;;3.59;84.17;102745.50;4988703;28;20482;-68
2023/05/03 02:51:34;;;;;;;6.13;3.28;;;;;;;3.60;84.01;102749.09;5000141;28;20207;-68
2023/05/03 02:53:59;;;;;;;7.00;3.55;;;;;;;3.57;85.34;102742.81;4995127;28;20088;-68
2023/05/03 02:56:25;;;;;;;8.45;3.97;;;;;;;3.52;85.13;102730.34;4986735;28;20042;-69
2023/05/03 02:58:51;;;;;;;10.25;4.00;;;;;;;3.48;84.98;102726.78;4987665;28;20034;-69
2023/05/03 03:01:17;;;;;;;5.05;3.17;;;;;;;3.47;85.08;102733.09;4987070;28;20145;-68
2023/05/03 03:03:43;;;;;;;9.93;3.25;;;;;;;3.43;84.63;102731.34;4986517;28;20497;-69
2023/05/03 03:06:09;;;;;;;6.75;3.58;;;;;;;3.42;84.81;102734.94;4987266;28;20060;-69
2023/05/03 03:08:35;;;;;;;6.85;4.00;;;;;;;3.40;85.11;102746.63;4990672;28;20113;-69
2023/05/03 03:11:04;;;;;;;7.82;3.97;;;;;;;3.40;84.20;102749.31;4986534;28;20546;-69
2023/05/03 03:13:31;;;;;;;4.57;3.13;;;;;;;3.39;84.42;102752.91;4986810;28;20077;-69
2023/05/03 03:15:57;;;;;;;8.93;3.70;;;;;;;3.40;85.21;102758.25;4986632;28;20098;-69
2023/05/03 03:18:23;;;;;;;6.57;3.50;;;;;;;3.40;85.87;102752.00;4987686;28;20073;-68
2023/05/03 03:20:49;;;;;;;7.80;3.88;;;;;;;3.41;85.79;102753.81;4998797;28;20080;-68
2023/05/03 03:23:15;;;;;;;8.35;3.45;;;;;;;3.39;85.07;102750.22;5001419;28;20038;-69
2023/05/03 03:25:41;;;;;;;10.25;3.30;;;;;;;3.38;84.57;102753.81;4986329;28;20504;-69
2023/05/03 03:28:07;;;;;;;7.18;3.95;;;;;;;3.36;84.37;102763.69;4998225;28;20022;-68
2023/05/03 03:30:33;;;;;;;7.65;3.33;;;;;;;3.30;84.34;102762.84;4986434;28;20104;-69
2023/05/03 03:33:08;;;;;;;4.50;3.47;;;;;;;3.30;84.10;102765.56;4986005;28;20081;-68
2023/05/03 03:35:38;;;;;;;5.65;3.70;;;;;;;3.32;85.49;102766.44;4987250;28;20034;-69
2023/05/03 03:38:05;;;;;;;7.47;3.28;;;;;;;3.30;84.74;102754.78;4984669;28;20049;-69
2023/05/03 03:40:32;;;;;;;5.60;3.55;;;;;;;3.31;84.32;102756.59;4985800;28;20037;-69
2023/05/03 03:42:58;;;;;;;4.30;3.30;;;;;;;3.30;84.59;102754.78;4986380;28;20061;-69
2023/05/03 03:45:24;;;;;;;6.65;3.92;;;;;;;3.28;84.59;102745.88;4986206;28;20033;-69
2023/05/03 03:47:51;;;;;;;5.45;3.10;;;;;;;3.20;84.35;102744.16;4986320;28;20497;-69
2023/05/03 03:50:18;;;;;;;5.63;3.63;;;;;;;3.21;84.21;102744.13;4987529;28;20046;-69
2023/05/03 03:52:43;;;;;;;5.00;3.63;;;;;;;3.23;84.62;102745.03;4985221;28;20030;-69
2023/05/03 03:55:10;;;;;;;6.57;4.03;;;;;;;3.21;84.76;102751.31;4985859;28;20490;-69
2023/05/03 03:57:36;;;;;;;11.90;3.83;;;;;;;3.17;85.11;102752.25;4984741;28;20034;-69
2023/05/03 04:00:09;;;;;;;8.75;3.85;;;;;;;3.15;85.24;102759.47;4985432;28;20399;-69
2023/05/03 04:02:37;;;;;;;7.28;3.70;;;;;;;3.13;85.32;102758.59;5004760;28;20042;-69
2023/05/03 04:05:06;;;;;;;6.55;3.70;;;;;;;3.11;84.36;102763.97;4997828;28;20038;-69
2023/05/03 04:07:32;;;;;;;9.23;4.18;;;;;;;3.10;85.26;102762.19;4984110;28;20425;-69
2023/05/03 04:09:58;;;;;;;6.63;3.72;;;;;;;3.14;84.71;102763.06;4985627;28;20034;-69
2023/05/03 04:12:23;;;;;;;6.65;3.60;;;;;;;3.12;84.72;102765.75;4985655;28;20038;-70
2023/05/03 04:14:49;;;;;;;9.35;4.05;;;;;;;3.12;85.32;102768.44;4986245;28;20057;-70
2023/05/03 04:17:15;;;;;;;9.10;4.00;;;;;;;3.13;85.79;102780.13;4984793;28;20433;-69
2023/05/03 04:19:41;;;;;;;7.55;4.38;;;;;;;3.11;85.00;102774.72;4986668;28;20034;-70
2023/05/03 04:22:07;;;;;;;8.07;3.90;;;;;;;3.08;85.20;102772.09;4995718;28;20446;-69
2023/05/03 04:24:34;;;;;;;9.07;3.92;;;;;;;3.09;85.92;102775.66;4985071;28;20137;-69
2023/05/03 04:27:03;;;;;;;7.30;4.00;;;;;;;3.09;85.78;102772.97;4985144;28;20149;-69
2023/05/03 04:29:29;;;;;;;7.40;3.63;;;;;;;3.12;85.83;102773.81;4984927;28;20382;-69
2023/05/03 04:31:54;;;;;;;7.30;3.75;;;;;;;3.18;85.69;102768.41;4985297;28;20137;-69
2023/05/03 04:34:20;;;;;;;6.40;3.70;;;;;;;3.20;86.25;102773.75;4987700;28;20121;-70
2023/05/03 04:36:49;;;;;;;6.53;4.03;;;;;;;3.23;86.19;102780.00;4984653;28;20026;-69
2023/05/03 04:39:15;;;;;;;7.68;3.97;;;;;;;3.32;85.56;102787.06;4985161;28;20035;-69
2023/05/03 04:41:43;;;;;;;11.52;4.63;;;;;;;3.33;84.67;102795.13;4984787;28;20462;-69
2023/05/03 04:44:08;;;;;;;6.95;4.10;;;;;;;3.33;85.14;102795.13;4985015;28;20030;-69
2023/05/03 04:46:34;;;;;;;6.55;3.97;;;;;;;3.32;85.14;102798.72;4984918;28;20510;-69
2023/05/03 04:48:59;;;;;;;5.22;3.47;;;;;;;3.40;84.78;102811.19;4984865;28;20145;-69
2023/05/03 04:51:27;;;;;;;4.68;3.22;;;;;;;3.42;85.96;102817.47;4991391;28;20446;-69
2023/05/03 04:53:52;;;;;;;9.20;4.10;;;;;;;3.45;85.27;102818.31;4992240;28;20081;-69
2023/05/03 04:56:24;;;;;;;5.00;3.67;;;;;;;3.49;85.21;102824.53;4986717;28;20524;-69
2023/05/03 04:58:52;;;;;;;7.00;3.90;;;;;;;3.51;85.86;102831.69;4984957;28;20041;-70
2023/05/03 05:01:18;;;;;;;10.80;4.45;;;;;;;3.56;84.80;102834.34;4998841;28;20616;-70
2023/05/03 05:03:45;;;;;;;9.30;4.50;;;;;;;3.60;84.88;102840.59;5003900;28;20132;-70
2023/05/03 05:06:16;;;;;;;7.93;3.95;;;;;;;3.60;84.68;102836.09;4971333;28;20046;-69
2023/05/03 05:08:43;;;;;;;11.38;4.65;;;;;;;3.64;86.11;102834.22;4991668;28;20490;-69
2023/05/03 05:11:12;;;;;;;6.13;4.30;;;;;;;3.68;86.44;102833.28;5004032;28;20193;-69
2023/05/03 05:13:38;;;;;;;7.47;3.72;;;;;;;3.72;85.57;102837.72;5001112;28;20033;-69
2023/05/03 05:16:04;;;;;;;9.38;4.18;;;;;;;3.75;86.49;102830.50;5003669;28;20034;-69
2023/05/03 05:18:30;;;;;;;9.55;5.00;;;;;;;3.80;86.34;102833.16;5003760;28;20045;-69
2023/05/03 05:20:58;;;;;;;8.40;4.80;;;;;;;3.84;85.83;102837.59;4990917;28;20427;-69
2023/05/03 05:23:23;;;;;;;8.38;4.57;;;;;;;3.88;86.22;102838.44;4983772;28;20057;-70
2023/05/03 05:25:49;;;;;;;8.88;4.10;;;;;;;3.95;86.67;102834.75;4985368;28;20530;-69
2023/05/03 05:28:16;;;;;;;8.52;4.88;;;;;;;3.97;86.79;102824.88;5003623;28;20105;-69
2023/05/03 05:30:43;;;;;;;8.20;4.50;;;;;;;4.03;86.47;102831.06;4991602;28;20487;-70
2023/05/03 05:33:08;;;;;;;5.90;4.30;;;;;;;4.09;86.43;102835.47;4988701;28;20179;-69
2023/05/03 05:35:34;;;;;;;10.02;4.53;;;;;;;4.13;85.73;102837.19;4988188;28;20026;-70
2023/05/03 05:37:59;;;;;;;13.55;4.47;;;;;;;4.16;86.49;102837.16;4990045;28;20030;-69
2023/05/03 05:40:26;;;;;;;7.10;4.38;;;;;;;4.24;86.18;102837.97;4988201;28;20038;-70
2023/05/03 05:42:54;;;;;;;7.03;4.50;;;;;;;4.30;85.81;102829.78;5002250;28;20052;-69
2023/05/03 05:45:22;;;;;;;8.02;4.82;;;;;;;4.43;85.99;102829.59;5003817;28;20026;-69
2023/05/03 05:47:50;;;;;;;10.95;5.53;;;;;;;4.55;85.39;102834.81;4988823;28;20504;-70
2023/05/03 05:50:15;;;;;;;11.25;4.55;;;;;;;4.56;85.70;102828.50;4988616;28;20121;-69
2023/05/03 05:52:41;;;;;;;10.32;4.22;;;;;;;4.65;85.35;102833.75;4986582;28;20291;-70
2023/05/03 05:55:08;;;;;;;10.15;5.18;;;;;;;4.71;86.59;102832.75;5004298;28;20121;-69
2023/05/03 05:57:34;;;;;;;7.18;4.65;;;;;;;4.84;85.42;102845.13;5001181;28;20096;-69
2023/05/03 06:00:00;;;;;;;7.32;4.50;;;;;;;5.05;84.58;102835.78;5006535;28;20045;-69
2023/05/03 06:02:26;;;;;;;9.18;4.47;;;;;;;5.19;84.64;102844.53;4990498;28;20060;-69
2023/05/03 06:04:51;;;;;;;8.85;4.82;;;;;;;5.28;85.11;102843.47;4991807;28;20050;-70
2023/05/03 06:07:17;;;;;;;10.52;4.63;;;;;;;5.33;83.99;102844.28;5006765;28;20165;-69
2023/05/03 06:09:42;;;;;;;9.43;4.25;;;;;;;5.38;82.90;102843.25;4991897;28;20362;-69
2023/05/03 06:12:09;;;;;;;12.23;4.03;;;;;;;5.46;82.87;102847.66;4987802;28;20081;-69
2023/05/03 06:14:38;;;;;;;9.85;4.70;;;;;;;5.56;82.80;102838.44;4987868;28;20430;-69
2023/05/03 06:17:04;;;;;;;5.50;4.22;;;;;;;5.67;83.06;102836.41;4987779;28;20148;-69
2023/05/03 06:19:30;;;;;;;8.15;4.65;;;;;;;5.78;82.61;102839.81;4987478;28;20438;-69
2023/05/03 06:21:56;;;;;;;9.52;4.32;;;;;;;5.91;81.46;102826.91;4986015;28;20446;-69
2023/05/03 06:24:22;;;;;;;8.15;4.45;;;;;;;5.96;80.80;102819.63;4998231;28;20057;-70
2023/05/03 06:26:52;;;;;;;10.63;4.93;;;;;;;6.04;81.44;102823.06;4993817;28;20018;-70
2023/05/03 06:29:17;;;;;;;8.70;4.40;;;;;;;6.21;81.68;102824.50;4997814;28;20065;-69
2023/05/03 06:31:43;;;;;;;12.27;4.53;;;;;;;6.28;80.19;102820.72;4987324;28;20034;-69
2023/05/03 06:34:10;;;;;;;8.68;4.20;;;;;;;6.35;80.92;102834.09;4987362;28;20400;-69
2023/05/03 06:36:38;;;;;;;9.60;4.35;;;;;;;6.37;78.62;102825.94;4986358;28;20287;-69
2023/05/03 06:39:04;;;;;;;15.60;4.78;;;;;;;6.41;81.22;102818.66;4987041;28;20129;-70
2023/05/03 06:41:31;;;;;;;7.68;4.32;;;;;;;6.43;79.23;102814.06;4987612;28;20117;-69
2023/05/03 06:43:57;;;;;;;8.07;4.47;;;;;;;6.46;80.37;102816.72;4987285;28;20049;-69
2023/05/03 06:46:23;;;;;;;7.88;4.47;;;;;;;6.57;80.89;102812.81;4988467;28;20038;-69
2023/05/03 06:48:49;;;;;;;6.78;4.75;;;;;;;6.64;78.63;102814.47;4989087;28;20050;-69
2023/05/03 06:51:14;;;;;;;9.63;5.38;;;;;;;6.74;78.99;102809.72;4986764;28;20073;-69
2023/05/03 06:53:39;;;;;;;9.75;4.63;;;;;;;6.94;79.38;102800.19;4985151;28;20088;-70
2023/05/03 06:56:05;;;;;;;9.85;5.32;;;;;;;7.02;78.39;102804.47;4986943;28;20049;-69
2023/05/03 06:58:31;;;;;;;9.27;4.90;;;;;;;7.12;78.28;102805.13;4988534;28;20482;-70
2023/05/03 07:00:56;;;;;;;12.50;4.43;;;;;;;7.18;78.22;102812.19;4992184;28;20096;-69
2023/05/03 07:03:22;;;;;;;7.18;4.63;;;;;;;7.21;77.92;102801.28;5022349;28;20069;-70
2023/05/03 07:05:48;;;;;;;10.32;5.82;;;;;;;7.29;76.20;102813.69;5008708;28;20076;-69
2023/05/03 07:08:13;;;;;;;8.82;4.00;;;;;;;7.45;74.94;102807.84;4987776;28;20050;-69
2023/05/03 07:10:40;;;;;;;8.75;3.70;;;;;;;7.46;74.31;102815.94;4988054;28;20129;-69
2023/05/03 07:13:05;;;;;;;8.55;4.05;;;;;;;7.52;75.55;102818.47;4987237;28;20038;-70
2023/05/03 07:15:31;;;;;;;8.88;4.40;;;;;;;7.64;75.29;102815.41;4986613;28;20557;-69
2023/05/03 07:17:56;;;;;;;9.95;4.53;;;;;;;7.74;76.09;102816.06;4986327;28;20399;-70
2023/05/03 07:20:22;;;;;;;10.23;4.40;;;;;;;7.83;77.15;102820.28;4988083;28;20109;-69
2023/05/03 07:22:47;;;;;;;7.57;4.05;;;;;;;7.87;76.97;102813.84;4985737;28;20072;-69
2023/05/03 07:25:15;;;;;;;9.00;4.55;;;;;;;8.06;75.92;102819.63;4986116;28;20026;-69
2023/05/03 07:27:40;;;;;;;10.40;5.72;;;;;;;8.22;75.83;102811.91;4986385;28;20341;-69
2023/05/03 07:30:06;;;;;;;15.02;4.28;;;;;;;8.26;73.37;102819.91;4987717;28;20042;-69
2023/05/03 07:32:32;;;;;;;9.27;5.40;;;;;;;8.23;73.68;102809.16;4987330;28;20038;-69
2023/05/03 07:34:57;;;;;;;9.45;4.40;;;;;;;8.23;73.78;102808.25;4987495;28;20022;-69
2023/05/03 07:37:23;;;;;;;7.93;4.40;;;;;;;8.24;73.40;102804.59;4986070;28;20046;-69
2023/05/03 07:39:49;;;;;;;9.35;5.13;;;;;;;8.23;73.69;102794.72;4987834;28;20229;-69
2023/05/03 07:42:14;;;;;;;9.93;4.60;;;;;;;8.25;73.16;102804.56;4987577;28;20121;-69
2023/05/03 07:44:40;;;;;;;8.52;4.68;;;;;;;8.30;74.42;102793.56;4987491;28;20542;-69
2023/05/03 07:47:05;;;;;;;10.10;4.95;;;;;;;8.48;73.44;102800.25;4987131;28;20394;-70
2023/05/03 07:49:34;;;;;;;9.40;4.53;;;;;;;8.72;73.24;102787.72;5002513;28;20073;-70
2023/05/03 07:52:00;;;;;;;8.98;4.70;;;;;;;9.01;71.80;102784.91;4985164;28;20069;-70
2023/05/03 07:54:25;;;;;;;14.05;4.82;;;;;;;9.39;71.24;102778.09;4996715;28;20461;-69
2023/05/03 07:56:51;;;;;;;10.27;4.25;;;;;;;9.64;69.45;102763.59;5007459;28;20037;-70
2023/05/03 07:59:16;;;;;;;9.85;4.00;;;;;;;10.03;68.29;102765.75;4985529;28;20019;-69
2023/05/03 08:01:42;;;;;;;7.55;4.13;;;;;;;10.39;68.68;102774.28;4986526;28;20053;-70
2023/05/03 08:04:07;;;;;;;6.10;3.72;;;;;;;10.69;66.11;102761.25;4985795;28;20046;-70
2023/05/03 08:06:34;;;;;;;7.20;4.38;;;;;;;10.69;62.69;102762.13;4985878;28;20030;-70
2023/05/03 08:08:59;;;;;;;11.23;3.80;;;;;;;10.75;66.24;102755.53;4986820;28;20069;-69
2023/05/03 08:11:26;;;;;;;8.68;3.72;;;;;;;10.96;63.02;102754.63;4985336;28;20173;-69
2023/05/03 08:13:51;;;;;;;8.15;4.20;;;;;;;11.02;61.62;102752.59;4998173;28;20030;-70
2023/05/03 08:16:17;;;;;;;7.30;3.38;;;;;;;11.15;61.79;102732.91;4987719;28;20442;-70
2023/05/03 08:18:42;;;;;;;5.53;3.35;;;;;;;11.45;63.09;102735.19;4986522;28;20041;-70
2023/05/03 08:21:10;;;;;;;6.55;3.47;;;;;;;11.74;60.09;102747.47;4986357;28;20092;-69
2023/05/03 08:23:36;;;;;;;6.40;3.88;;;;;;;11.96;59.63;102742.81;4985681;28;20113;-69
2023/05/03 08:26:03;;;;;;;6.32;3.80;;;;;;;12.08;57.62;102748.66;4986857;28;20173;-68
2023/05/03 08:28:29;;;;;;;5.97;3.38;;;;;;;12.35;58.22;102750.00;4986699;28;20124;-69
2023/05/03 08:30:55;;;;;;;6.68;3.75;;;;;;;12.35;56.10;102738.19;4986872;28;20033;-69
2023/05/03 08:33:21;;;;;;;6.35;3.25;;;;;;;12.36;59.05;102735.41;4986817;28;20061;-70
2023/05/03 08:35:46;;;;;;;6.82;3.25;;;;;;;12.58;55.09;102732.47;4987068;28;20054;-69
2023/05/03 08:38:12;;;;;;;7.07;3.20;;;;;;;12.91;55.92;102731.69;4983396;28;20100;-69
2023/05/03 08:40:38;;;;;;;4.20;3.00;;;;;;;13.14;54.96;102728.63;4986382;28;20462;-69
2023/05/03 08:43:08;;;;;;;8.00;3.30;;;;;;;13.37;56.37;102730.19;4986152;28;20042;-69
2023/05/03 08:45:34;;;;;;;7.43;3.20;;;;;;;13.79;53.18;102726.06;4986635;28;20474;-68
2023/05/03 08:48:03;;;;;;;8.73;3.60;;;;;;;14.07;54.61;102725.38;4984895;28;20049;-69
2023/05/03 08:50:29;;;;;;;8.52;2.97;;;;;;;14.34;51.30;102722.03;4985377;28;20494;-69
2023/05/03 08:52:55;;;;;;;6.72;3.40;;;;;;;14.71;53.89;102729.00;4984566;28;20029;-69
2023/05/03 08:55:21;;;;;;;7.10;3.25;;;;;;;14.62;48.84;102733.16;4986615;28;20418;-69
2023/05/03 08:57:46;;;;;;;5.43;3.25;;;;;;;14.25;46.82;102748.97;4985965;28;20497;-68
2023/05/03 09:00:13;;;;;;;11.15;3.10;;;;;;;13.88;48.10;102747.44;4986516;28;20097;-69
2023/05/03 09:02:39;;;;;;;4.85;3.10;;;;;;;13.60;49.92;102747.19;5004065;28;20069;-68
2023/05/03 09:05:14;;;;;;;11.15;3.25;;;;;;;13.49;51.66;102745.94;4999050;28;20399;-68
2023/05/03 09:07:58;;;;;;;6.22;3.55;;;;;;;13.60;49.33;102748.06;4987520;28;20125;-69
2023/05/03 09:10:24;;;;;;;7.15;2.95;;;;;;;13.57;49.79;102745.53;4990341;28;20041;-68
2023/05/03 09:12:57;;;;;;;7.63;3.22;;;;;;;13.72;49.78;102738.31;4989677;28;20026;-69
2023/05/03 09:15:23;;;;;;;6.53;3.70;;;;;;;13.59;49.33;102739.97;5000836;28;20525;-69
2023/05/03 09:18:12;;;;;;;6.22;3.55;;;;;;;13.89;53.16;102743.72;5010310;28;20110;-69
2023/05/03 09:20:39;;;;;;;8.88;3.75;;;;;;;14.11;51.14;102739.78;4989952;28;20070;-69
2023/05/03 09:23:06;;;;;;;4.85;3.75;;;;;;;14.31;52.14;102734.03;4988629;28;20386;-69
2023/05/03 09:25:45;;;;;;;7.57;3.40;;;;;;;14.67;51.94;102744.72;4989779;28;20061;-69
2023/05/03 09:28:15;;;;;;;9.57;3.83;;;;;;;15.05;50.56;102736.91;4989924;28;20473;-69
2023/05/03 09:30:42;;;;;;;7.50;3.30;;;;;;;15.25;46.59;102734.84;4990306;28;20558;-68
2023/05/03 09:33:07;;;;;;;10.68;3.30;;;;;;;15.13;47.66;102746.56;4989647;28;20090;-69
2023/05/03 09:35:34;;;;;;;5.43;3.60;;;;;;;14.85;45.27;102734.53;4988295;28;20572;-69
2023/05/03 09:38:00;;;;;;;7.47;3.40;;;;;;;14.71;45.21;102727.13;4988622;28;20092;-69
2023/05/03 09:40:26;;;;;;;4.95;3.40;;;;;;;14.70;46.01;102733.59;4989539;28;20042;-69
2023/05/03 09:43:09;;;;;;;11.00;3.75;;;;;;;14.87;48.73;102734.41;4989796;28;20410;-69
2023/05/03 09:45:37;;;;;;;10.25;3.65;;;;;;;15.34;49.41;102733.34;5001388;28;20511;-68
2023/05/03 09:48:05;;;;;;;6.82;3.15;;;;;;;15.98;49.53;102721.06;5006526;28;20030;-69
2023/05/03 09:50:32;;;;;;;7.22;3.38;;;;;;;16.31;46.44;102728.94;4989925;28;20049;-69
2023/05/03 09:53:05;;;;;;;6.07;3.40;;;;;;;16.30;48.07;102718.94;4986822;28;20029;-69
2023/05/03 09:55:40;;;;;;;6.18;3.72;;;;;;;16.12;44.17;102715.53;4989658;28;20049;-69
2023/05/03 09:58:06;;;;;;;6.63;3.50;;;;;;;15.65;44.57;102722.25;4989360;28;20034;-69
2023/05/03 10:00:39;;;;;;;7.55;3.42;;;;;;;15.30;43.76;102721.72;4988927;28;20481;-69
2023/05/03 10:03:05;;;;;;;;;;;;;;;15.63;48.30;102720.56;4989462;28;20144;-69
2023/05/03 10:05:35;;;;;;;4.68;3.38;;;;;;;15.68;47.09;102723.94;4989590;28;19961;-69
2023/05/03 10:08:03;;;;;;;8.48;3.95;;;;;;;15.45;45.69;102717.13;4987534;28;20117;-69
2023/05/03 10:10:32;;;;;;;6.80;3.53;;;;;;;15.25;45.95;102715.66;4989405;28;20018;-69
2023/05/03 10:13:00;;;;;;;8.18;3.90;;;;;;;15.25;45.92;102713.78;4989097;28;20166;-68
2023/05/03 10:15:28;;;;;;;7.97;4.28;;;;;;;15.43;49.26;102703.50;4986729;28;20439;-69
2023/05/03 10:17:56;;;;;;;6.72;3.55;;;;;;;15.86;45.45;102711.78;4989120;28;20359;-69
2023/05/03 10:20:40;;;;;;;5.50;3.70;;;;;;;16.22;46.42;102715.81;4988127;28;20180;-68
2023/05/03 10:23:10;;;;;;;6.82;3.55;;;;;;;16.22;44.22;102719.44;4987763;28;20060;-69
2023/05/03 10:25:37;;;;;;;7.18;3.40;;;;;;;16.14;44.09;102724.56;4987243;28;20038;-69
2023/05/03 10:28:05;;;;;;;7.57;3.55;;;;;;;16.47;48.49;102712.31;4999575;28;20027;-68
2023/05/03 10:30:38;;;;;;;6.40;3.50;;;;;;;16.88;43.54;102714.09;4990215;28;20089;-69
2023/05/03 10:33:28;;;;;;;4.75;3.40;;;;;;;17.29;44.77;102711.19;4986971;28;20038;-69
2023/05/03 10:35:54;;;;;;;7.47;3.92;;;;;;;17.15;41.19;102719.56;4987283;28;20092;-69
2023/05/03 10:38:27;;;;;;;10.02;4.22;;;;;;;16.53;43.20;102720.13;4988141;28;20050;-69
2023/05/03 10:40:54;;;;;;;8.73;3.70;;;;;;;16.08;41.42;102717.59;4988695;28;20045;-69
2023/05/03 10:43:40;;;;;;;6.10;3.75;;;;;;;16.61;46.95;102716.88;4987942;28;20113;-69
2023/05/03 10:46:11;;;;;;;5.13;3.75;;;;;;;16.96;43.01;102707.09;4988266;28;20057;-69
2023/05/03 10:48:36;;;;;;;7.10;4.20;;;;;;;17.19;44.10;102702.72;4988643;28;20498;-69
2023/05/03 10:51:27;;;;;;;7.30;3.53;;;;;;;16.75;44.25;102705.84;4988067;28;20019;-69
2023/05/03 10:53:53;;;;;;;7.68;4.13;;;;;;;16.34;41.60;102709.50;4987572;28;20370;-68
2023/05/03 10:56:18;;;;;;;9.15;3.70;;;;;;;16.16;46.13;102717.09;4987709;28;20058;-69
2023/05/03 10:58:57;;;;;;;7.13;3.85;;;;;;;16.19;45.68;102708.66;4988137;28;20129;-69
2023/05/03 11:01:25;;;;;;;9.70;4.07;;;;;;;16.13;43.66;102710.91;5006396;28;20064;-69
2023/05/03 11:04:01;;;;;;;7.78;3.95;;;;;;;16.31;45.42;102715.19;4996116;28;20062;-69
2023/05/03 11:06:32;;;;;;;6.85;3.90;;;;;;;16.03;43.01;102714.28;4987494;28;20598;-68
2023/05/03 11:08:58;;;;;;;7.55;3.92;;;;;;;15.76;43.19;102703.25;4987841;28;20093;-68
2023/05/03 11:11:23;;;;;;;7.53;4.40;;;;;;;15.92;48.09;102692.16;4988019;28;20038;-69
2023/05/03 11:13:52;;;;;;;6.65;4.43;;;;;;;16.23;43.94;102692.88;4989032;28;20192;-68
2023/05/03 11:16:18;;;;;;;7.70;3.72;;;;;;;16.45;43.68;102684.91;4988942;28;20117;-69
2023/05/03 11:18:44;;;;;;;4.57;3.83;;;;;;;16.55;42.67;102677.84;4986279;28;20498;-69
2023/05/03 11:21:10;;;;;;;7.22;4.32;;;;;;;16.49;41.04;102680.97;4987631;28;20100;-69
2023/05/03 11:23:37;;;;;;;8.48;4.30;;;;;;;16.50;45.68;102674.50;4985214;28;20030;-69
2023/05/03 11:26:06;;;;;;;8.65;3.67;;;;;;;16.72;45.01;102681.31;4985897;28;20048;-69
2023/05/03 11:28:31;;;;;;;6.30;4.22;;;;;;;17.04;43.18;102670.81;4987698;28;20168;-69
2023/05/03 11:30:57;;;;;;;7.00;3.92;;;;;;;17.49;44.75;102663.91;4999244;28;20545;-68